^^
Saratoga-Weather Station Historical Data
 
Daily Summary for October 25, 2020 Units:  English    Metric   Both
Daily Weekly Monthly Yearly
  Current: High: Low: Average:
Temperature: 52.1 °F 52.1 °F 41.4 °F 46.2 °F
Dew Point: 38.4 °F 40.3 °F 35.2 °F 37.5 °F
Humidity: 59.4% 86% 58.5% 72%
Wind Speed: 0.5mph 6mph 0mph 0.8mph
Wind Gust: 7mph 12mph - -
WindNNW - - SSW
Pressure: 30.24 in 30.25 in 30.05 in -
Precipitation: 0.00 in      
 
 
Tabular Data for October 25, 2020
Time Temperature Dew Point Pressure Wind Wind Speed Wind Gust Humidity Rainfall Rate (Hourly) solar
00:09 47.6 °F 40.3 °F 30.05 in NNW 0.8 mph 6 mph 75.8% 0.00 in 0 W/m2
00:14 47.5 °F 40.3 °F 30.05 in Calm   6 mph 76% 0.00 in 0 W/m2
00:19 47.4 °F 40.2 °F 30.05 in NNW 0.3 mph 6 mph 76% 0.00 in 0 W/m2
00:24 47.2 °F 40.1 °F 30.05 in NNW 0.2 mph 6 mph 76% 0.00 in 0 W/m2
00:29 47.2 °F 40.1 °F 30.06 in NW 0.7 mph 6 mph 76.2% 0.00 in 0 W/m2
00:34 47 °F 40 °F 30.05 in NW 1.4 mph 6 mph 76.5% 0.00 in 0 W/m2
00:39 46.9 °F 40 °F 30.05 in NW 0.3 mph 6 mph 77% 0.00 in 0 W/m2
00:44 46.7 °F 39.9 °F 30.05 in NW 0.2 mph 6 mph 77% 0.00 in 0 W/m2
00:49 46.6 °F 39.8 °F 30.06 in NW 1.2 mph 7 mph 77% 0.00 in 0 W/m2
00:54 46.5 °F 39.7 °F 30.06 in NW 1.4 mph 7 mph 77% 0.00 in 0 W/m2
00:59 46.4 °F 39.6 °F 30.06 in NNW 0.6 mph 7 mph 77% 0.00 in 0 W/m2
01:04 46.4 °F 39.6 °F 30.06 in NNW 1.7 mph 7 mph 77% 0.00 in 0 W/m2
01:09 46.3 °F 39.2 °F 30.06 in NW 0.7 mph 6 mph 76% 0.00 in 0 W/m2
01:14 46.3 °F 39.1 °F 30.06 in NW 0.1 mph 6 mph 75.7% 0.00 in 0 W/m2
01:19 46.3 °F 38.8 °F 30.06 in NNW 0.1 mph 6 mph 75% 0.00 in 0 W/m2
01:24 46.3 °F 38.8 °F 30.07 in NNE 0.1 mph 6 mph 75% 0.00 in 0 W/m2
01:29 46.3 °F 38.8 °F 30.07 in North 0.1 mph 6 mph 75% 0.00 in 0 W/m2
01:34 46.3 °F 38.8 °F 30.07 in NNW 1.3 mph 6 mph 75% 0.00 in 0 W/m2
01:39 46.3 °F 38.8 °F 30.07 in NNW 1.4 mph 8 mph 75% 0.00 in 0 W/m2
01:44 46.3 °F 38.6 °F 30.07 in NNW 2.1 mph 9 mph 74.3% 0.00 in 0 W/m2
01:49 46.3 °F 38.5 °F 30.07 in NW 2 mph 9 mph 74% 0.00 in 0 W/m2
01:54 46.2 °F 38.4 °F 30.07 in NNW 1.8 mph 9 mph 74% 0.00 in 0 W/m2
01:59 46.2 °F 38.1 °F 30.08 in NNW 2.2 mph 11 mph 73.2% 0.00 in 0 W/m2
02:04 46.2 °F 38 °F 30.08 in NNW 0.8 mph 11 mph 73% 0.00 in 0 W/m2
02:09 46.1 °F 37.9 °F 30.08 in North 0.4 mph 5 mph 73% 0.00 in 0 W/m2
02:14 46 °F 37.9 °F 30.08 in NNW 1 mph 7 mph 73% 0.00 in 0 W/m2
02:19 46 °F 37.8 °F 30.08 in NNW 0.5 mph 7 mph 73% 0.00 in 0 W/m2
02:24 45.9 °F 37.8 °F 30.08 in NNW 0.9 mph 7 mph 73% 0.00 in 0 W/m2
02:29 45.8 °F 37.7 °F 30.08 in NNW 0.5 mph 7 mph 73% 0.00 in 0 W/m2
02:34 45.8 °F 37.6 °F 30.08 in North 0.3 mph 7 mph 73% 0.00 in 0 W/m2
02:39 45.7 °F 37.6 °F 30.09 in NNW 1.2 mph 7 mph 73% 0.00 in 0 W/m2
02:44 45.6 °F 37.5 °F 30.09 in NNW 0.6 mph 7 mph 73.3% 0.00 in 0 W/m2
02:49 45.5 °F 37.7 °F 30.09 in NNW 0.3 mph 7 mph 74% 0.00 in 0 W/m2
02:54 45.4 °F 37.6 °F 30.09 in NNW 0.1 mph 7 mph 74% 0.00 in 0 W/m2
02:59 45.3 °F 37.6 °F 30.10 in North 0.7 mph 7 mph 74% 0.00 in 0 W/m2
03:04 45.2 °F 37.4 °F 30.10 in Calm   7 mph 74% 0.00 in 0 W/m2
03:09 45.1 °F 37.7 °F 30.10 in NNW 0.5 mph 5 mph 75% 0.00 in 0 W/m2
03:14 45 °F 37.6 °F 30.10 in NNW 0.9 mph 5 mph 75% 0.00 in 0 W/m2
03:19 44.9 °F 37.5 °F 30.10 in NNW 0.2 mph 5 mph 75% 0.00 in 0 W/m2
03:24 44.7 °F 37.6 °F 30.10 in NNW 0.2 mph 5 mph 75.7% 0.00 in 0 W/m2
03:29 44.6 °F 37.5 °F 30.10 in NNW 0.1 mph 5 mph 76% 0.00 in 0 W/m2
03:34 44.5 °F 37.4 °F 30.10 in Calm   5 mph 76% 0.00 in 0 W/m2
03:39 44.4 °F 37.5 °F 30.10 in Calm     76.4% 0.00 in 0 W/m2
03:44 44.3 °F 37.5 °F 30.10 in Calm     77% 0.00 in 0 W/m2
03:49 44.2 °F 37.4 °F 30.11 in Calm     77% 0.00 in 0 W/m2
03:54 44.1 °F 37.5 °F 30.11 in Calm     77.4% 0.00 in 0 W/m2
03:59 44 °F 37.6 °F 30.11 in Calm     78% 0.00 in 0 W/m2
04:00 44 °F 37.6 °F 30.10 in Calm     78% 0.00 in 0 W/m2
04:09 43.8 °F 37.4 °F 30.11 in Calm     78% 0.00 in 0 W/m2
04:14 43.7 °F 37.4 °F 30.11 in Calm     78.4% 0.00 in 0 W/m2
04:19 43.6 °F 37.5 °F 30.11 in Calm   1 mph 79% 0.00 in 0 W/m2
04:24 43.5 °F 37.4 °F 30.11 in Calm   1 mph 79% 0.00 in 0 W/m2
04:29 43.4 °F 37.3 °F 30.11 in Calm   1 mph 79% 0.00 in 0 W/m2
04:34 43.3 °F 37.5 °F 30.11 in Calm   1 mph 79.8% 0.00 in 0 W/m2
04:39 43.3 °F 37.5 °F 30.12 in NNW 0.1 mph 2 mph 79.8% 0.00 in 0 W/m2
04:44 43.2 °F 37.5 °F 30.12 in Calm   2 mph 80% 0.00 in 0 W/m2
04:49 43.2 °F 37.5 °F 30.13 in NNW 0.3 mph 3 mph 80% 0.00 in 0 W/m2
04:54 43.2 °F 37.5 °F 30.13 in Calm   3 mph 80% 0.00 in 0 W/m2
04:59 43.1 °F 37.4 °F 30.13 in Calm   3 mph 80% 0.00 in 0 W/m2
05:04 43.1 °F 37.4 °F 30.14 in Calm     80% 0.00 in 0 W/m2
05:09 43 °F 37.3 °F 30.14 in Calm     80% 0.00 in 0 W/m2
05:14 43 °F 37.3 °F 30.14 in Calm     80% 0.00 in 0 W/m2
05:19 43 °F 37.4 °F 30.15 in Calm     80.5% 0.00 in 0 W/m2
05:24 42.9 °F 37.5 °F 30.15 in Calm     81% 0.00 in 0 W/m2
05:29 42.9 °F 37.5 °F 30.15 in Calm     81% 0.00 in 0 W/m2
05:34 42.8 °F 37.4 °F 30.15 in Calm     81% 0.00 in 0 W/m2
05:39 42.8 °F 37.4 °F 30.15 in Calm     81% 0.00 in 0 W/m2
05:44 42.7 °F 37.3 °F 30.15 in Calm     81% 0.00 in 0 W/m2
05:49 42.7 °F 37.3 °F 30.15 in Calm     81% 0.00 in 0 W/m2
05:54 42.7 °F 37.4 °F 30.16 in Calm     81.5% 0.00 in 0 W/m2
05:59 42.6 °F 37.5 °F 30.16 in Calm     82% 0.00 in 0 W/m2
06:04 42.6 °F 37.5 °F 30.16 in NNW 0.1 mph 1 mph 82% 0.00 in 0 W/m2
06:09 42.5 °F 37.4 °F 30.16 in Calm   1 mph 82% 0.00 in 0 W/m2
06:14 42.5 °F 37.4 °F 30.16 in Calm   1 mph 82% 0.00 in 0 W/m2
06:19 42.4 °F 37.3 °F 30.16 in Calm   1 mph 82% 0.00 in 0 W/m2
06:24 42.4 °F 37.3 °F 30.16 in Calm   1 mph 82% 0.00 in 0 W/m2
06:29 42.4 °F 37.3 °F 30.16 in Calm   1 mph 82% 0.00 in 0 W/m2
06:34 42.3 °F 37.2 °F 30.16 in Calm   1 mph 82% 0.00 in 0 W/m2
06:39 42.3 °F 37.2 °F 30.16 in Calm     82.1% 0.00 in 0 W/m2
06:44 42.2 °F 37.4 °F 30.16 in Calm     83% 0.00 in 0 W/m2
06:49 42.2 °F 37.4 °F 30.16 in Calm     83% 0.00 in 0 W/m2
06:54 42.1 °F 37.3 °F 30.17 in Calm     83% 0.00 in 0 W/m2
06:59 42 °F 37.3 °F 30.17 in Calm     83% 0.00 in 0 W/m2
07:04 42 °F 37.2 °F 30.17 in Calm     83% 0.00 in 0 W/m2
07:09 41.9 °F 37.1 °F 30.17 in Calm     83% 0.00 in 0 W/m2
07:14 41.8 °F 37.3 °F 30.17 in Calm     83.9% 0.00 in 0 W/m2
07:19 41.7 °F 37.2 °F 30.18 in Calm     84% 0.00 in 5 W/m2
07:24 41.6 °F 37.1 °F 30.18 in Calm     84% 0.00 in 9 W/m2
07:29 41.6 °F 37.2 °F 30.18 in Calm     84.5% 0.00 in 14 W/m2
07:34 41.5 °F 37.3 °F 30.19 in Calm     85% 0.00 in 21 W/m2
07:39 41.5 °F 37.3 °F 30.19 in Calm     85% 0.00 in 21 W/m2
07:44 41.4 °F 37.3 °F 30.19 in Calm     85.1% 0.00 in 25 W/m2
07:49 41.4 °F 37.4 °F 30.20 in Calm     85.5% 0.00 in 33 W/m2
07:54 41.5 °F 37.6 °F 30.20 in Calm   1 mph 86% 0.00 in 39 W/m2
07:59 41.5 °F 37.6 °F 30.20 in Calm   2 mph 86% 0.00 in 42 W/m2
08:00 41.5 °F 37.6 °F 30.20 in Calm   2 mph 86% 0.00 in 42 W/m2
08:09 41.7 °F 37.7 °F 30.21 in Calm     85.5% 0.00 in 58 W/m2
08:14 41.9 °F 37.8 °F 30.22 in Calm     85.3% 0.00 in 62 W/m2
08:19 42.1 °F 38 °F 30.22 in NNW 0.3 mph 4 mph 85% 0.00 in 72 W/m2
08:24 42.4 °F 38.2 °F 30.22 in NNW 0.2 mph 4 mph 84.7% 0.00 in 84 W/m2
08:29 42.7 °F 38 °F 30.22 in NNW 0.5 mph 4 mph 83.3% 0.00 in 91 W/m2
08:34 43.1 °F 37.9 °F 30.22 in NNE 0.4 mph 4 mph 81.9% 0.00 in 100 W/m2
08:39 43.4 °F 37.6 °F 30.22 in NE 0.5 mph 6 mph 80% 0.00 in 113 W/m2
08:44 43.8 °F 37.6 °F 30.23 in NNE 0.4 mph 6 mph 78.9% 0.00 in 155 W/m2
08:49 44.2 °F 37.6 °F 30.23 in NNW 1.4 mph 6 mph 77.5% 0.00 in 146 W/m2
08:54 44.6 °F 37.2 °F 30.23 in NNE 1.4 mph 9 mph 75.1% 0.00 in 123 W/m2
08:59 44.9 °F 36.8 °F 30.23 in NW 1.4 mph 9 mph 73% 0.00 in 132 W/m2
09:04 45.1 °F 36.7 °F 30.24 in NNW 1.5 mph 9 mph 71.9% 0.00 in 141 W/m2
09:09 45.3 °F 36.4 °F 30.24 in North 2 mph 7 mph 70.8% 0.00 in 132 W/m2
09:14 45.5 °F 36.2 °F 30.24 in North 1.6 mph 9 mph 69.9% 0.00 in 132 W/m2
09:19 45.5 °F 35.9 °F 30.24 in NE 0.6 mph 9 mph 69% 0.00 in 141 W/m2
09:24 45.6 °F 35.8 °F 30.24 in NE 1.7 mph 9 mph 68.6% 0.00 in 144 W/m2
09:29 45.6 °F 35.9 °F 30.24 in NNE 0.9 mph 9 mph 68.6% 0.00 in 135 W/m2
09:34 45.7 °F 36.1 °F 30.24 in NNE 1.7 mph 9 mph 68.9% 0.00 in 141 W/m2
09:39 45.8 °F 35.9 °F 30.24 in NNE 0.5 mph 6 mph 68% 0.00 in 125 W/m2
09:44 45.9 °F 36.1 °F 30.25 in NE 1.7 mph 9 mph 68.5% 0.00 in 125 W/m2
09:49 45.9 °F 36 °F 30.25 in NNW 1.5 mph 9 mph 68% 0.00 in 130 W/m2
09:54 46 °F 36.4 °F 30.25 in North 1.7 mph 10 mph 68.9% 0.00 in 127 W/m2
09:59 46.2 °F 35.6 °F 30.25 in NE 4 mph 11 mph 66.4% 0.00 in 146 W/m2
10:04 46.3 °F 35.4 °F 30.25 in NNE 2.9 mph 12 mph 65.7% 0.00 in 156 W/m2
10:09 46.3 °F 35.2 °F 30.25 in NE 2 mph 12 mph 65% 0.00 in 155 W/m2
10:14 46.3 °F 35.4 °F 30.25 in NNE 2.3 mph 12 mph 65.4% 0.00 in 151 W/m2
10:19 46.4 °F 35.8 °F 30.25 in North 1 mph 12 mph 66.4% 0.00 in 144 W/m2
10:24 46.5 °F 35.8 °F 30.25 in North 0.1 mph 12 mph 66% 0.00 in 162 W/m2
10:29 46.6 °F 35.5 °F 30.25 in NE 1.9 mph 12 mph 65% 0.00 in 179 W/m2
10:34 46.6 °F 35.6 °F 30.24 in North 0.9 mph 12 mph 65.3% 0.00 in 195 W/m2
10:39 46.8 °F 36.2 °F 30.24 in NNW 0.3 mph 5 mph 66.6% 0.00 in 236 W/m2
10:44 47.1 °F 36.6 °F 30.24 in North 2.2 mph 9 mph 66.7% 0.00 in 221 W/m2
10:49 47.4 °F 36.1 °F 30.23 in NNE 1.7 mph 10 mph 64.8% 0.00 in 220 W/m2
10:54 47.4 °F 35.9 °F 30.23 in NE 3.4 mph 11 mph 64.2% 0.00 in 309 W/m2
10:59 47.5 °F 35.9 °F 30.23 in NE 1 mph 11 mph 63.8% 0.00 in 274 W/m2
11:04 47.6 °F 36.1 °F 30.23 in North 1.5 mph 11 mph 64.1% 0.00 in 332 W/m2
11:09 47.8 °F 36.5 °F 30.24 in NNE 2 mph 11 mph 64.7% 0.00 in 332 W/m2
11:14 48.2 °F 36.8 °F 30.24 in NNW 2 mph 11 mph 64.4% 0.00 in 322 W/m2
11:19 48.6 °F 36.7 °F 30.24 in NNE 1 mph 11 mph 63.3% 0.00 in 301 W/m2
11:24 48.6 °F 36.6 °F 30.24 in North 1.4 mph 11 mph 63% 0.00 in 248 W/m2
11:29 48.8 °F 37 °F 30.24 in NNW 2.3 mph 11 mph 63.5% 0.00 in 304 W/m2
11:34 49.2 °F 37.3 °F 30.24 in North 0.9 mph 11 mph 63.5% 0.00 in 341 W/m2
11:39 49.5 °F 37.1 °F 30.24 in NNW 1.1 mph 9 mph 62.2% 0.00 in 366 W/m2
11:44 49.6 °F 36.9 °F 30.25 in North 0.9 mph 9 mph 61.4% 0.00 in 255 W/m2
11:49 49.6 °F 36.6 °F 30.24 in ENE 1.6 mph 12 mph 60.6% 0.00 in 237 W/m2
11:54 49.4 °F 36.8 °F 30.24 in North 0.4 mph 12 mph 61.5% 0.00 in 246 W/m2
11:59 49.3 °F 36.7 °F 30.24 in NNE 1 mph 12 mph 61.6% 0.00 in 279 W/m2
12:00 49.3 °F 37.7 °F 30.23 in NNW 6 mph 12 mph 64% 0.00 in 279 W/m2
12:09 49.6 °F 36.9 °F 30.24 in East 0.7 mph 6 mph 61.7% 0.00 in 352 W/m2
12:14 49.6 °F 36.7 °F 30.24 in NNE 0.9 mph 6 mph 61.1% 0.00 in 501 W/m2
12:19 49.8 °F 37.6 °F 30.24 in ENE 0.4 mph 6 mph 62.6% 0.00 in 461 W/m2
12:24 49.9 °F 36.5 °F 30.24 in ENE 1.2 mph 6 mph 59.9% 0.00 in 255 W/m2
12:29 49.6 °F 36.3 °F 30.24 in NE 1.1 mph 6 mph 60.1% 0.00 in 281 W/m2
12:34 49.5 °F 36.7 °F 30.24 in NNE 1.2 mph 6 mph 61.1% 0.00 in 302 W/m2
12:39 49.6 °F 37 °F 30.24 in NE 1.8 mph 7 mph 61.6% 0.00 in 315 W/m2
12:44 50 °F 37.7 °F 30.24 in North 0.6 mph 7 mph 62.5% 0.00 in 315 W/m2
12:49 50.3 °F 37.3 °F 30.24 in North 0.6 mph 7 mph 60.7% 0.00 in 316 W/m2
12:54 50.6 °F 37.5 °F 30.24 in ENE 1.1 mph 7 mph 60.7% 0.00 in 541 W/m2
12:59 50.8 °F 37.6 °F 30.25 in ENE 2.4 mph 7 mph 60.4% 0.00 in 422 W/m2
13:04 50.9 °F 37.1 °F 30.24 in NE 1 mph 7 mph 59% 0.00 in 406 W/m2
13:09 51 °F 37.7 °F 30.24 in North 1.4 mph 7 mph 60.4% 0.00 in 436 W/m2
13:14 51.3 °F 37.9 °F 30.23 in NNE 1.6 mph 8 mph 60.2% 0.00 in 427 W/m2
13:19 51.5 °F 37.9 °F 30.23 in North 1.2 mph 8 mph 59.7% 0.00 in 320 W/m2
13:24 51.5 °F 37.5 °F 30.23 in NE 2.4 mph 8 mph 58.5% 0.00 in 264 W/m2
13:29 51.6 °F 37.7 °F 30.23 in ENE 0.8 mph 8 mph 58.8% 0.00 in 236 W/m2
13:34 51.5 °F 37.7 °F 30.24 in ENE 0.5 mph 8 mph 59.2% 0.00 in 241 W/m2
13:39 51.5 °F 38.1 °F 30.24 in NNE 0.4 mph 4 mph 59.9% 0.00 in 251 W/m2
13:44 51.6 °F 38 °F 30.23 in North 0.7 mph 6 mph 59.7% 0.00 in 258 W/m2
13:49 51.6 °F 38.3 °F 30.23 in NNW 1.1 mph 6 mph 60.2% 0.00 in 225 W/m2
13:54 51.5 °F 38 °F 30.23 in North 0.3 mph 6 mph 59.7% 0.00 in 218 W/m2
13:59 51.4 °F 37.9 °F 30.23 in North 0.1 mph 6 mph 59.6% 0.00 in 236 W/m2
14:04 51.5 °F 38.7 °F 30.23 in WNW 1.5 mph 7 mph 61.4% 0.00 in 272 W/m2
14:09 51.7 °F 38.4 °F 30.23 in NNE 0.9 mph 7 mph 60.2% 0.00 in 221 W/m2
14:14 51.7 °F 38.3 °F 30.23 in NNW 1.8 mph 7 mph 60.1% 0.00 in 278 W/m2
14:19 51.7 °F 37.8 °F 30.23 in NW 0.1 mph 7 mph 59% 0.00 in 278 W/m2
14:24 51.7 °F 38.2 °F 30.23 in North 0.5 mph 7 mph 59.6% 0.00 in 197 W/m2
14:29 51.8 °F 38.2 °F 30.23 in NNW 1.1 mph 7 mph 59.7% 0.00 in 193 W/m2
14:34 51.8 °F 38.3 °F 30.23 in NW 1.5 mph 8 mph 59.8% 0.00 in 183 W/m2
14:39 51.7 °F 38.3 °F 30.24 in NW 1.7 mph 8 mph 59.9% 0.00 in 155 W/m2
14:44 51.6 °F 38.1 °F 30.24 in NNW 1.6 mph 8 mph 59.7% 0.00 in 165 W/m2
14:49 51.6 °F 38.4 °F 30.24 in North 0.8 mph 8 mph 60.5% 0.00 in 195 W/m2
14:54 51.5 °F 37.9 °F 30.24 in NNW 1.7 mph 8 mph 59.5% 0.00 in 211 W/m2
14:59 51.6 °F 38.2 °F 30.24 in North 0.9 mph 8 mph 60% 0.00 in 218 W/m2
15:04 51.8 °F 38.3 °F 30.24 in NW 2 mph 8 mph 60% 0.00 in 253 W/m2
15:09 52 °F 38.4 °F 30.24 in NW 1.1 mph 7 mph 59.7% 0.00 in 155 W/m2
15:13 52.1 °F 38.4 °F 30.24 in NNW 0.5 mph 7 mph 59.4% 0.00 in 197 W/m2
Grace C. Lehan Memorial Weather Station
Compliments of Weather Underground - 2 mb